sensor_id;sensor_type;location;lat;lon;timestamp;pressure;altitude;pressure_sealevel;temperature;humidity
57248;BME280;55809;46.618;10.764;2023-03-26T00:01:33;92547.34;;;7.02;41.42
57248;BME280;55809;46.618;10.764;2023-03-26T00:04:01;92541.59;;;7.00;41.23
57248;BME280;55809;46.618;10.764;2023-03-26T00:06:33;92548.50;;;6.98;41.28
57248;BME280;55809;46.618;10.764;2023-03-26T00:09:04;92540.84;;;6.89;42.25
57248;BME280;55809;46.618;10.764;2023-03-26T00:11:32;92523.59;;;6.76;41.16
57248;BME280;55809;46.618;10.764;2023-03-26T00:14:04;92536.25;;;6.86;41.71
57248;BME280;55809;46.618;10.764;2023-03-26T00:16:33;92519.78;;;6.70;42.27
57248;BME280;55809;46.618;10.764;2023-03-26T00:19:01;92546.22;;;6.89;42.97
57248;BME280;55809;46.618;10.764;2023-03-26T00:21:30;92539.31;;;6.92;41.25
57248;BME280;55809;46.618;10.764;2023-03-26T00:24:00;92520.56;;;6.85;40.68
57248;BME280;55809;46.618;10.764;2023-03-26T00:26:30;92535.09;;;7.01;40.24
57248;BME280;55809;46.618;10.764;2023-03-26T00:28:59;92540.84;;;6.93;40.43
57248;BME280;55809;46.618;10.764;2023-03-26T00:31:35;92543.13;;;6.87;40.92
57248;BME280;55809;46.618;10.764;2023-03-26T00:34:05;92521.69;;;6.69;40.58
57248;BME280;55809;46.618;10.764;2023-03-26T00:36:36;92536.25;;;6.79;41.20
57248;BME280;55809;46.618;10.764;2023-03-26T00:39:04;92548.50;;;6.91;41.65
57248;BME280;55809;46.618;10.764;2023-03-26T00:41:32;92541.25;;;6.91;40.91
57248;BME280;55809;46.618;10.764;2023-03-26T00:44:03;92542.00;;;6.95;40.68
57248;BME280;55809;46.618;10.764;2023-03-26T00:46:38;92540.84;;;6.96;40.45
57248;BME280;55809;46.618;10.764;2023-03-26T00:49:07;92527.03;;;6.87;40.93
57248;BME280;55809;46.618;10.764;2023-03-26T00:51:36;92490.28;;;6.70;40.78
57248;BME280;55809;46.618;10.764;2023-03-26T00:54:05;92524.75;;;6.89;40.71
57248;BME280;55809;46.618;10.764;2023-03-26T00:56:33;92502.53;;;6.64;40.90
57248;BME280;55809;46.618;10.764;2023-03-26T00:59:04;92515.16;;;6.70;40.98
57248;BME280;55809;46.618;10.764;2023-03-26T01:01:33;92512.50;;;6.70;41.13
57248;BME280;55809;46.618;10.764;2023-03-26T01:04:20;92520.94;;;6.76;41.08
57248;BME280;55809;46.618;10.764;2023-03-26T01:06:53;92504.84;;;6.72;40.69
57248;BME280;55809;46.618;10.764;2023-03-26T01:09:28;92516.31;;;6.76;41.71
57248;BME280;55809;46.618;10.764;2023-03-26T01:11:59;92507.50;;;6.79;41.11
57248;BME280;55809;46.618;10.764;2023-03-26T01:14:29;92502.91;;;6.84;41.34
57248;BME280;55809;46.618;10.764;2023-03-26T01:17:01;92499.47;;;6.79;41.38
57248;BME280;55809;46.618;10.764;2023-03-26T01:19:30;92496.78;;;6.72;41.22
57248;BME280;55809;46.618;10.764;2023-03-26T01:22:05;92471.13;;;6.53;41.74
57248;BME280;55809;46.618;10.764;2023-03-26T01:24:36;92492.56;;;6.57;41.02
57248;BME280;55809;46.618;10.764;2023-03-26T01:27:19;92491.81;;;6.60;41.22
57248;BME280;55809;46.618;10.764;2023-03-26T01:29:52;92482.59;;;6.57;41.30
57248;BME280;55809;46.618;10.764;2023-03-26T01:32:49;92481.09;;;6.56;41.00
57248;BME280;55809;46.618;10.764;2023-03-26T01:35:28;92480.31;;;6.67;41.16
57248;BME280;55809;46.618;10.764;2023-03-26T01:38:05;92465.75;;;6.61;40.51
57248;BME280;55809;46.618;10.764;2023-03-26T01:40:41;92469.97;;;6.76;40.55
57248;BME280;55809;46.618;10.764;2023-03-26T01:43:23;92471.50;;;6.77;40.61
57248;BME280;55809;46.618;10.764;2023-03-26T01:45:57;92479.16;;;6.75;40.23
57248;BME280;55809;46.618;10.764;2023-03-26T01:48:45;92485.66;;;6.81;40.52
57248;BME280;55809;46.618;10.764;2023-03-26T01:51:25;92475.69;;;6.71;40.25
57248;BME280;55809;46.618;10.764;2023-03-26T01:53:55;92479.19;;;6.71;40.74
57248;BME280;55809;46.618;10.764;2023-03-26T01:56:30;92481.84;;;6.71;40.85
57248;BME280;55809;46.618;10.764;2023-03-26T01:59:09;92478.78;;;6.73;40.85
57248;BME280;55809;46.618;10.764;2023-03-26T02:01:46;92481.47;;;6.73;40.31
57248;BME280;55809;46.618;10.764;2023-03-26T02:04:23;92486.81;;;6.76;40.07
57248;BME280;55809;46.618;10.764;2023-03-26T02:06:58;92492.94;;;6.80;40.07
57248;BME280;55809;46.618;10.764;2023-03-26T02:09:33;92486.06;;;6.79;40.30
57248;BME280;55809;46.618;10.764;2023-03-26T02:12:06;92482.63;;;6.72;39.84
57248;BME280;55809;46.618;10.764;2023-03-26T02:14:34;92479.53;;;6.70;40.41
57248;BME280;55809;46.618;10.764;2023-03-26T02:17:03;92481.47;;;6.69;40.57
57248;BME280;55809;46.618;10.764;2023-03-26T02:19:30;92475.31;;;6.83;40.80
57248;BME280;55809;46.618;10.764;2023-03-26T02:21:58;92477.97;;;6.90;40.99
57248;BME280;55809;46.618;10.764;2023-03-26T02:24:27;92486.03;;;7.01;40.25
57248;BME280;55809;46.618;10.764;2023-03-26T02:26:56;92484.13;;;7.01;40.75
57248;BME280;55809;46.618;10.764;2023-03-26T02:29:29;92487.56;;;7.05;41.02
57248;BME280;55809;46.618;10.764;2023-03-26T02:31:57;92488.69;;;7.12;40.99
57248;BME280;55809;46.618;10.764;2023-03-26T02:34:24;92484.84;;;7.13;40.78
57248;BME280;55809;46.618;10.764;2023-03-26T02:36:51;92465.66;;;7.11;40.67
57248;BME280;55809;46.618;10.764;2023-03-26T02:39:20;92468.38;;;7.14;39.84
57248;BME280;55809;46.618;10.764;2023-03-26T02:41:47;92466.81;;;7.13;39.77
57248;BME280;55809;46.618;10.764;2023-03-26T02:44:16;92473.72;;;7.21;40.32
57248;BME280;55809;46.618;10.764;2023-03-26T02:46:46;92480.56;;;7.33;39.70
57248;BME280;55809;46.618;10.764;2023-03-26T02:49:14;92476.75;;;7.27;39.86
57248;BME280;55809;46.618;10.764;2023-03-26T02:51:42;92474.06;;;7.31;40.01
57248;BME280;55809;46.618;10.764;2023-03-26T02:54:13;92470.59;;;7.34;40.06
57248;BME280;55809;46.618;10.764;2023-03-26T02:56:44;92446.47;;;7.26;40.36
57248;BME280;55809;46.618;10.764;2023-03-26T02:59:11;92455.63;;;7.40;40.86
57248;BME280;55809;46.618;10.764;2023-03-26T03:01:40;92447.56;;;7.36;39.81
57248;BME280;55809;46.618;10.764;2023-03-26T03:04:13;92446.06;;;7.32;39.97
57248;BME280;55809;46.618;10.764;2023-03-26T03:06:43;92439.53;;;7.33;40.32
57248;BME280;55809;46.618;10.764;2023-03-26T03:09:12;92434.91;;;7.37;40.71
57248;BME280;55809;46.618;10.764;2023-03-26T03:11:40;92441.84;;;7.34;41.06
57248;BME280;55809;46.618;10.764;2023-03-26T03:14:08;92434.56;;;7.35;41.77
57248;BME280;55809;46.618;10.764;2023-03-26T03:16:37;92438.03;;;7.28;42.49
57248;BME280;55809;46.618;10.764;2023-03-26T03:19:05;92446.88;;;7.25;42.96
57248;BME280;55809;46.618;10.764;2023-03-26T03:21:38;92420.09;;;7.00;43.26
57248;BME280;55809;46.618;10.764;2023-03-26T03:24:07;92447.69;;;7.00;43.54
57248;BME280;55809;46.618;10.764;2023-03-26T03:26:36;92445.03;;;6.90;43.92
57248;BME280;55809;46.618;10.764;2023-03-26T03:29:04;92431.25;;;6.80;44.35
57248;BME280;55809;46.618;10.764;2023-03-26T03:31:32;92434.34;;;6.75;43.71
57248;BME280;55809;46.618;10.764;2023-03-26T03:33:59;92429.34;;;6.74;43.96
57248;BME280;55809;46.618;10.764;2023-03-26T03:36:28;92428.22;;;6.61;44.58
57248;BME280;55809;46.618;10.764;2023-03-26T03:39:00;92420.97;;;6.47;44.46
57248;BME280;55809;46.618;10.764;2023-03-26T03:41:29;92346.31;;;5.77;45.03
57248;BME280;55809;46.618;10.764;2023-03-26T03:43:57;92330.59;;;5.65;44.89
57248;BME280;55809;46.618;10.764;2023-03-26T03:46:26;92308.44;;;5.54;45.23
57248;BME280;55809;46.618;10.764;2023-03-26T03:48:54;92352.06;;;6.04;45.91
57248;BME280;55809;46.618;10.764;2023-03-26T03:51:22;92309.56;;;5.81;46.81
57248;BME280;55809;46.618;10.764;2023-03-26T03:53:51;92289.31;;;5.66;46.25
57248;BME280;55809;46.618;10.764;2023-03-26T03:56:22;92304.63;;;5.80;46.23
57248;BME280;55809;46.618;10.764;2023-03-26T03:58:51;92329.50;;;5.98;45.97
57248;BME280;55809;46.618;10.764;2023-03-26T04:01:20;92386.50;;;6.27;46.30
57248;BME280;55809;46.618;10.764;2023-03-26T04:03:49;92309.59;;;5.71;46.61
57248;BME280;55809;46.618;10.764;2023-03-26T04:06:17;92395.31;;;6.28;45.56
57248;BME280;55809;46.618;10.764;2023-03-26T04:08:46;92344.00;;;5.90;44.83
57248;BME280;55809;46.618;10.764;2023-03-26T04:11:14;92305.75;;;5.64;43.80
57248;BME280;55809;46.618;10.764;2023-03-26T04:13:44;92302.69;;;5.48;44.34
57248;BME280;55809;46.618;10.764;2023-03-26T04:16:12;92371.97;;;6.00;44.80
57248;BME280;55809;46.618;10.764;2023-03-26T04:18:40;92316.09;;;5.66;45.63
57248;BME280;55809;46.618;10.764;2023-03-26T04:21:08;92303.47;;;5.67;46.16
57248;BME280;55809;46.618;10.764;2023-03-26T04:23:37;92330.66;;;5.97;46.46
57248;BME280;55809;46.618;10.764;2023-03-26T04:26:07;92295.81;;;5.83;47.50
57248;BME280;55809;46.618;10.764;2023-03-26T04:28:42;92292.72;;;5.92;48.03
57248;BME280;55809;46.618;10.764;2023-03-26T04:31:17;92278.97;;;5.90;48.57
57248;BME280;55809;46.618;10.764;2023-03-26T04:33:50;92361.25;;;6.39;48.15
57248;BME280;55809;46.618;10.764;2023-03-26T04:36:24;92353.56;;;6.34;47.50
57248;BME280;55809;46.618;10.764;2023-03-26T04:38:55;92285.88;;;5.94;49.14
57248;BME280;55809;46.618;10.764;2023-03-26T04:41:27;92331.78;;;6.18;48.97
57248;BME280;55809;46.618;10.764;2023-03-26T04:43:55;92283.19;;;5.91;48.90
57248;BME280;55809;46.618;10.764;2023-03-26T04:46:29;92349.75;;;6.42;48.29
57248;BME280;55809;46.618;10.764;2023-03-26T04:49:00;92283.59;;;5.93;48.88
57248;BME280;55809;46.618;10.764;2023-03-26T04:51:35;92313.41;;;6.20;49.68
57248;BME280;55809;46.618;10.764;2023-03-26T04:54:09;92285.88;;;6.01;49.40
57248;BME280;55809;46.618;10.764;2023-03-26T04:56:43;92297.75;;;5.93;48.99
57248;BME280;55809;46.618;10.764;2023-03-26T04:59:16;92265.97;;;5.70;49.03
57248;BME280;55809;46.618;10.764;2023-03-26T05:01:48;92277.47;;;5.71;48.19
57248;BME280;55809;46.618;10.764;2023-03-26T05:04:15;92284.72;;;5.74;47.24
57248;BME280;55809;46.618;10.764;2023-03-26T05:06:43;92328.72;;;6.08;47.52
57248;BME280;55809;46.618;10.764;2023-03-26T05:09:12;92265.59;;;5.64;47.62
57248;BME280;55809;46.618;10.764;2023-03-26T05:11:41;92335.22;;;6.22;47.83
57248;BME280;55809;46.618;10.764;2023-03-26T05:14:10;92342.50;;;6.32;47.06
57248;BME280;55809;46.618;10.764;2023-03-26T05:16:38;92276.69;;;5.84;47.11
57248;BME280;55809;46.618;10.764;2023-03-26T05:19:10;92321.06;;;6.18;46.57
57248;BME280;55809;46.618;10.764;2023-03-26T05:21:41;92342.50;;;6.32;46.69
57248;BME280;55809;46.618;10.764;2023-03-26T05:24:10;92382.63;;;6.61;47.18
57248;BME280;55809;46.618;10.764;2023-03-26T05:26:42;92266.34;;;5.83;47.38
57248;BME280;55809;46.618;10.764;2023-03-26T05:29:14;92268.63;;;5.92;45.82
57248;BME280;55809;46.618;10.764;2023-03-26T05:31:51;92330.22;;;6.42;46.89
57248;BME280;55809;46.618;10.764;2023-03-26T05:34:25;92273.63;;;6.00;47.28
57248;BME280;55809;46.618;10.764;2023-03-26T05:36:55;92275.16;;;5.98;47.26
57248;BME280;55809;46.618;10.764;2023-03-26T05:39:25;92327.94;;;6.29;46.56
57248;BME280;55809;46.618;10.764;2023-03-26T05:41:56;92327.19;;;6.29;46.90
57248;BME280;55809;46.618;10.764;2023-03-26T05:44:24;92316.09;;;6.13;47.30
57248;BME280;55809;46.618;10.764;2023-03-26T05:46:54;92293.13;;;5.86;48.17
57248;BME280;55809;46.618;10.764;2023-03-26T06:00:24;92302.69;;;6.05;49.57
57248;BME280;55809;46.618;10.764;2023-03-26T06:02:54;92412.47;;;6.84;49.30
57248;BME280;55809;46.618;10.764;2023-03-26T06:05:25;92335.56;;;6.52;48.58
57248;BME280;55809;46.618;10.764;2023-03-26T06:08:00;92307.63;;;6.39;47.95
57248;BME280;55809;46.618;10.764;2023-03-26T06:10:29;92288.88;;;6.36;48.31
57248;BME280;55809;46.618;10.764;2023-03-26T06:12:59;92299.19;;;6.41;48.64
57248;BME280;55809;46.618;10.764;2023-03-26T06:15:33;92389.03;;;7.02;48.31
57248;BME280;55809;46.618;10.764;2023-03-26T06:18:03;92358.03;;;6.91;48.13
57248;BME280;55809;46.618;10.764;2023-03-26T06:20:34;92275.47;;;6.39;48.00
57248;BME280;55809;46.618;10.764;2023-03-26T06:23:04;92268.56;;;6.42;47.13
57248;BME280;55809;46.618;10.764;2023-03-26T06:25:46;92320.13;;;6.89;45.95
57248;BME280;55809;46.618;10.764;2023-03-26T06:28:16;92259.66;;;6.70;46.17
57248;BME280;55809;46.618;10.764;2023-03-26T06:30:48;92308.78;;;7.29;45.95
57248;BME280;55809;46.618;10.764;2023-03-26T06:33:19;92305.22;;;7.50;45.39
57248;BME280;55809;46.618;10.764;2023-03-26T06:35:48;92303.41;;;7.85;42.67
57248;BME280;55809;46.618;10.764;2023-03-26T06:38:18;92291.31;;;8.53;42.19
57248;BME280;55809;46.618;10.764;2023-03-26T06:40:46;92246.16;;;9.02;41.04
57248;BME280;55809;46.618;10.764;2023-03-26T06:43:15;92278.81;;;10.08;39.52
57248;BME280;55809;46.618;10.764;2023-03-26T06:45:51;92239.84;;;10.37;37.84
57248;BME280;55809;46.618;10.764;2023-03-26T06:48:20;92261.16;;;11.11;36.10
57248;BME280;55809;46.618;10.764;2023-03-26T06:50:49;92204.75;;;10.96;35.96
57248;BME280;55809;46.618;10.764;2023-03-26T06:53:17;92191.56;;;11.35;35.17
57248;BME280;55809;46.618;10.764;2023-03-26T06:55:47;92194.78;;;11.62;34.50
57248;BME280;55809;46.618;10.764;2023-03-26T06:58:18;92241.69;;;12.21;33.60
57248;BME280;55809;46.618;10.764;2023-03-26T07:01:11;92222.88;;;12.30;32.83
57248;BME280;55809;46.618;10.764;2023-03-26T07:03:42;92228.75;;;12.58;32.68
57248;BME280;55809;46.618;10.764;2023-03-26T07:06:14;92201.13;;;12.34;32.29
57248;BME280;55809;46.618;10.764;2023-03-26T07:08:47;92240.88;;;12.66;31.90
57248;BME280;55809;46.618;10.764;2023-03-26T07:11:18;92202.97;;;12.66;31.82
57248;BME280;55809;46.618;10.764;2023-03-26T07:13:57;92191.47;;;12.91;30.61
57248;BME280;55809;46.618;10.764;2023-03-26T07:19:35;92195.78;;;12.88;31.35
57248;BME280;55809;46.618;10.764;2023-03-26T07:22:06;92196.56;;;12.47;32.12
57248;BME280;55809;46.618;10.764;2023-03-26T07:24:43;92152.41;;;12.63;32.11
57248;BME280;55809;46.618;10.764;2023-03-26T07:27:26;92139.78;;;12.85;32.74
57248;BME280;55809;46.618;10.764;2023-03-26T07:30:08;92141.75;;;13.23;32.44
57248;BME280;55809;46.618;10.764;2023-03-26T07:32:49;92131.88;;;13.42;32.60
57248;BME280;55809;46.618;10.764;2023-03-26T07:38:45;92202.81;;;13.79;31.43
57248;BME280;55809;46.618;10.764;2023-03-26T07:41:27;92148.03;;;13.46;30.34
57248;BME280;55809;46.618;10.764;2023-03-26T07:44:14;92126.47;;;13.04;30.92
57248;BME280;55809;46.618;10.764;2023-03-26T07:46:56;92173.97;;;13.47;31.74
57248;BME280;55809;46.618;10.764;2023-03-26T07:49:49;92205.34;;;14.08;31.80
57248;BME280;55809;46.618;10.764;2023-03-26T07:52:49;92126.53;;;13.77;30.23
57248;BME280;55809;46.618;10.764;2023-03-26T07:55:26;92194.03;;;14.44;30.19
57248;BME280;55809;46.618;10.764;2023-03-26T07:58:22;92127.59;;;13.92;30.83
57248;BME280;55809;46.618;10.764;2023-03-26T08:01:08;92118.56;;;13.35;30.48
57248;BME280;55809;46.618;10.764;2023-03-26T08:04:15;92178.16;;;13.09;31.68
57248;BME280;55809;46.618;10.764;2023-03-26T08:07:08;92133.09;;;11.90;32.33
57248;BME280;55809;46.618;10.764;2023-03-26T08:09:59;92116.69;;;11.35;33.95
57248;BME280;55809;46.618;10.764;2023-03-26T08:13:05;92114.13;;;11.12;33.72
57248;BME280;55809;46.618;10.764;2023-03-26T08:15:44;92149.47;;;11.01;34.42
57248;BME280;55809;46.618;10.764;2023-03-26T08:18:35;92123.84;;;10.56;34.79
57248;BME280;55809;46.618;10.764;2023-03-26T08:21:11;92119.44;;;10.63;34.94
57248;BME280;55809;46.618;10.764;2023-03-26T08:23:55;92117.66;;;10.56;35.44
57248;BME280;55809;46.618;10.764;2023-03-26T08:26:40;92149.41;;;10.68;35.32
57248;BME280;55809;46.618;10.764;2023-03-26T08:29:37;92202.25;;;11.22;35.16
57248;BME280;55809;46.618;10.764;2023-03-26T08:32:39;92150.25;;;11.01;34.54
57248;BME280;55809;46.618;10.764;2023-03-26T08:35:25;92188.22;;;11.11;34.78
57248;BME280;55809;46.618;10.764;2023-03-26T08:38:04;92097.38;;;10.31;34.86
57248;BME280;55809;46.618;10.764;2023-03-26T08:53:38;92065.47;;;11.61;34.47
57248;BME280;55809;46.618;10.764;2023-03-26T08:56:54;92150.25;;;12.29;34.19
57248;BME280;55809;46.618;10.764;2023-03-26T09:03:22;92166.41;;;11.87;35.01
57248;BME280;55809;46.618;10.764;2023-03-26T09:06:26;92144.78;;;11.54;34.96
57248;BME280;55809;46.618;10.764;2023-03-26T09:15:54;92087.72;;;10.87;37.16
57248;BME280;55809;46.618;10.764;2023-03-26T09:19:24;92078.78;;;10.90;36.83
57248;BME280;55809;46.618;10.764;2023-03-26T09:34:51;92036.81;;;12.22;34.24
57248;BME280;55809;46.618;10.764;2023-03-26T09:38:06;92008.91;;;12.50;33.22
57248;BME280;55809;46.618;10.764;2023-03-26T09:41:03;91992.25;;;12.52;32.28
57248;BME280;55809;46.618;10.764;2023-03-26T09:47:29;91954.88;;;12.72;32.45
57248;BME280;55809;46.618;10.764;2023-03-26T09:50:23;91947.25;;;12.93;31.59
57248;BME280;55809;46.618;10.764;2023-03-26T09:53:44;91992.72;;;13.23;32.51
57248;BME280;55809;46.618;10.764;2023-03-26T09:56:28;91913.34;;;12.40;33.38
57248;BME280;55809;46.618;10.764;2023-03-26T10:02:54;91919.78;;;11.79;34.83
57248;BME280;55809;46.618;10.764;2023-03-26T10:06:08;91924.88;;;11.48;33.74
57248;BME280;55809;46.618;10.764;2023-03-26T10:09:09;91937.63;;;11.18;34.79
57248;BME280;55809;46.618;10.764;2023-03-26T10:12:09;91920.47;;;11.12;35.18
57248;BME280;55809;46.618;10.764;2023-03-26T10:14:53;92021.06;;;11.74;35.07
57248;BME280;55809;46.618;10.764;2023-03-26T10:17:45;91987.63;;;11.56;35.33
57248;BME280;55809;46.618;10.764;2023-03-26T10:20:45;91971.13;;;11.37;35.63
57248;BME280;55809;46.618;10.764;2023-03-26T10:26:55;91896.06;;;11.28;35.24
57248;BME280;55809;46.618;10.764;2023-03-26T10:30:03;91982.81;;;12.05;34.94
57248;BME280;55809;46.618;10.764;2023-03-26T10:32:46;91977.81;;;12.04;34.20
57248;BME280;55809;46.618;10.764;2023-03-26T10:35:40;91955.34;;;11.78;34.79
57248;BME280;55809;46.618;10.764;2023-03-26T10:38:24;91976.72;;;11.88;34.75
57248;BME280;55809;46.618;10.764;2023-03-26T10:41:17;91922.75;;;11.56;35.07
57248;BME280;55809;46.618;10.764;2023-03-26T10:52:50;91838.41;;;11.35;35.53
57248;BME280;55809;46.618;10.764;2023-03-26T10:55:30;91889.28;;;11.79;35.75
57248;BME280;55809;46.618;10.764;2023-03-26T10:58:14;91880.50;;;11.74;35.75
57248;BME280;55809;46.618;10.764;2023-03-26T11:00:57;91821.13;;;11.33;35.22
57248;BME280;55809;46.618;10.764;2023-03-26T11:03:44;91825.13;;;11.41;35.06
57248;BME280;55809;46.618;10.764;2023-03-26T11:06:33;91861.81;;;11.80;34.43
57248;BME280;55809;46.618;10.764;2023-03-26T11:09:24;91858.47;;;11.76;35.22
57248;BME280;55809;46.618;10.764;2023-03-26T11:12:01;91825.13;;;11.54;34.79
57248;BME280;55809;46.618;10.764;2023-03-26T11:14:42;91892.56;;;11.99;36.56
57248;BME280;55809;46.618;10.764;2023-03-26T11:17:27;91820.06;;;11.43;37.44
57248;BME280;55809;46.618;10.764;2023-03-26T11:20:06;91800.56;;;11.22;36.64
57248;BME280;55809;46.618;10.764;2023-03-26T11:22:53;91857.47;;;11.70;37.38
57248;BME280;55809;46.618;10.764;2023-03-26T11:25:32;91777.34;;;11.12;36.86
57248;BME280;55809;46.618;10.764;2023-03-26T11:28:22;91870.56;;;11.71;37.83
57248;BME280;55809;46.618;10.764;2023-03-26T11:30:52;91872.91;;;11.57;37.11
57248;BME280;55809;46.618;10.764;2023-03-26T11:33:28;91872.59;;;11.55;38.48
57248;BME280;55809;46.618;10.764;2023-03-26T11:36:00;91868.03;;;11.51;38.48
57248;BME280;55809;46.618;10.764;2023-03-26T11:38:32;91869.47;;;11.56;39.34
57248;BME280;55809;46.618;10.764;2023-03-26T11:41:03;91866.22;;;11.48;38.59
57248;BME280;55809;46.618;10.764;2023-03-26T11:43:36;91862.22;;;11.53;37.77
57248;BME280;55809;46.618;10.764;2023-03-26T11:46:06;91809.53;;;11.19;36.97
57248;BME280;55809;46.618;10.764;2023-03-26T11:48:39;91853.59;;;11.58;37.02
57248;BME280;55809;46.618;10.764;2023-03-26T11:51:13;91858.34;;;11.67;37.82
57248;BME280;55809;46.618;10.764;2023-03-26T11:53:41;91841.88;;;11.61;38.47
57248;BME280;55809;46.618;10.764;2023-03-26T11:56:19;91846.56;;;11.73;36.58
57248;BME280;55809;46.618;10.764;2023-03-26T11:58:53;91801.13;;;11.43;36.51
57248;BME280;55809;46.618;10.764;2023-03-26T12:01:24;91834.03;;;11.80;35.84
57248;BME280;55809;46.618;10.764;2023-03-26T12:04:01;91828.00;;;11.88;36.37
57248;BME280;55809;46.618;10.764;2023-03-26T12:06:29;91804.72;;;11.91;34.36
57248;BME280;55809;46.618;10.764;2023-03-26T12:08:57;91816.94;;;12.21;33.56
57248;BME280;55809;46.618;10.764;2023-03-26T12:11:28;91781.19;;;12.39;33.97
57248;BME280;55809;46.618;10.764;2023-03-26T12:14:01;91797.97;;;12.68;33.98
57248;BME280;55809;46.618;10.764;2023-03-26T12:16:29;91788.31;;;12.80;33.53
57248;BME280;55809;46.618;10.764;2023-03-26T12:19:00;91762.66;;;12.72;32.56
57248;BME280;55809;46.618;10.764;2023-03-26T12:21:28;91762.28;;;12.83;33.56
57248;BME280;55809;46.618;10.764;2023-03-26T12:23:57;91752.09;;;12.87;33.26
57248;BME280;55809;46.618;10.764;2023-03-26T12:26:37;91726.19;;;12.86;33.02
57248;BME280;55809;46.618;10.764;2023-03-26T12:29:09;91719.81;;;13.02;33.31
57248;BME280;55809;46.618;10.764;2023-03-26T12:31:41;91717.50;;;12.91;33.53
57248;BME280;55809;46.618;10.764;2023-03-26T12:34:17;91731.66;;;12.95;33.09
57248;BME280;55809;46.618;10.764;2023-03-26T12:36:50;91721.78;;;12.79;33.25
57248;BME280;55809;46.618;10.764;2023-03-26T12:39:28;91723.53;;;12.73;34.06
57248;BME280;55809;46.618;10.764;2023-03-26T12:41:58;91718.84;;;12.64;34.42
57248;BME280;55809;46.618;10.764;2023-03-26T12:44:28;91716.38;;;12.57;35.14
57248;BME280;55809;46.618;10.764;2023-03-26T12:47:08;91719.53;;;12.56;35.80
57248;BME280;55809;46.618;10.764;2023-03-26T12:49:37;91718.31;;;12.57;35.83
57248;BME280;55809;46.618;10.764;2023-03-26T12:55:01;91702.84;;;12.57;35.44
57248;BME280;55809;46.618;10.764;2023-03-26T12:57:35;91682.56;;;12.40;35.82
57248;BME280;55809;46.618;10.764;2023-03-26T13:00:24;91700.00;;;12.39;36.14
57248;BME280;55809;46.618;10.764;2023-03-26T13:03:21;91707.78;;;12.37;36.39
57248;BME280;55809;46.618;10.764;2023-03-26T13:06:10;91720.28;;;12.34;36.39
57248;BME280;55809;46.618;10.764;2023-03-26T13:09:07;91724.53;;;12.23;35.79
57248;BME280;55809;46.618;10.764;2023-03-26T13:11:49;91712.06;;;12.25;36.96
57248;BME280;55809;46.618;10.764;2023-03-26T13:14:42;91721.59;;;12.17;36.28
57248;BME280;55809;46.618;10.764;2023-03-26T13:17:20;91737.09;;;12.16;36.52
57248;BME280;55809;46.618;10.764;2023-03-26T13:19:57;91755.16;;;12.07;36.94
57248;BME280;55809;46.618;10.764;2023-03-26T13:22:36;91756.78;;;12.04;36.56
57248;BME280;55809;46.618;10.764;2023-03-26T13:25:17;91768.41;;;11.92;36.80
57248;BME280;55809;46.618;10.764;2023-03-26T13:27:52;91777.81;;;11.87;37.16
57248;BME280;55809;46.618;10.764;2023-03-26T13:30:32;91771.97;;;11.76;36.89
57248;BME280;55809;46.618;10.764;2023-03-26T13:33:15;91790.25;;;11.72;37.63
57248;BME280;55809;46.618;10.764;2023-03-26T13:35:52;91774.34;;;11.48;38.71
57248;BME280;55809;46.618;10.764;2023-03-26T13:38:28;91808.72;;;11.61;38.11
57248;BME280;55809;46.618;10.764;2023-03-26T13:41:03;91822.09;;;11.51;38.66
57248;BME280;55809;46.618;10.764;2023-03-26T13:43:43;91808.25;;;11.37;41.47
57248;BME280;55809;46.618;10.764;2023-03-26T13:46:19;91850.09;;;11.32;43.31
57248;BME280;55809;46.618;10.764;2023-03-26T13:48:52;91850.56;;;11.14;45.11
57248;BME280;55809;46.618;10.764;2023-03-26T13:51:23;91845.13;;;11.01;46.04
57248;BME280;55809;46.618;10.764;2023-03-26T13:53:56;91845.03;;;11.05;48.75
57248;BME280;55809;46.618;10.764;2023-03-26T13:56:30;91806.63;;;10.85;49.88
57248;BME280;55809;46.618;10.764;2023-03-26T13:59:03;91824.06;;;10.96;50.20
57248;BME280;55809;46.618;10.764;2023-03-26T14:01:34;91842.66;;;11.07;50.68
57248;BME280;55809;46.618;10.764;2023-03-26T14:04:14;91832.56;;;10.95;50.74
57248;BME280;55809;46.618;10.764;2023-03-26T14:06:47;91828.75;;;10.79;51.93
57248;BME280;55809;46.618;10.764;2023-03-26T14:09:26;91791.38;;;10.49;52.88
57248;BME280;55809;46.618;10.764;2023-03-26T14:12:09;91814.44;;;10.66;52.14
57248;BME280;55809;46.618;10.764;2023-03-26T14:14:42;91824.53;;;10.78;54.48
57248;BME280;55809;46.618;10.764;2023-03-26T14:17:15;91810.97;;;10.66;53.98
57248;BME280;55809;46.618;10.764;2023-03-26T14:20:22;91822.06;;;10.84;54.79
57248;BME280;55809;46.618;10.764;2023-03-26T14:23:02;91827.16;;;10.95;53.97
57248;BME280;55809;46.618;10.764;2023-03-26T14:25:58;91826.66;;;11.00;55.22
57248;BME280;55809;46.618;10.764;2023-03-26T14:31:35;91831.22;;;11.03;53.23
57248;BME280;55809;46.618;10.764;2023-03-26T14:34:44;91829.78;;;10.98;52.71
57248;BME280;55809;46.618;10.764;2023-03-26T14:40:43;91821.34;;;10.96;54.04
57248;BME280;55809;46.618;10.764;2023-03-26T14:46:42;91816.47;;;10.91;52.16
57248;BME280;55809;46.618;10.764;2023-03-26T14:49:28;91814.41;;;10.83;54.27
57248;BME280;55809;46.618;10.764;2023-03-26T14:52:09;91812.72;;;10.72;54.51
57248;BME280;55809;46.618;10.764;2023-03-26T14:54:43;91804.88;;;10.78;53.48
57248;BME280;55809;46.618;10.764;2023-03-26T14:57:46;91794.41;;;10.80;53.16
57248;BME280;55809;46.618;10.764;2023-03-26T15:01:09;91786.94;;;10.71;52.85
57248;BME280;55809;46.618;10.764;2023-03-26T15:04:50;91796.69;;;10.82;53.32
57248;BME280;55809;46.618;10.764;2023-03-26T15:10:53;91793.09;;;10.72;53.54
57248;BME280;55809;46.618;10.764;2023-03-26T15:13:47;91800.09;;;10.69;53.94
57248;BME280;55809;46.618;10.764;2023-03-26T15:23:38;91797.53;;;10.49;54.35